Accueil
METAR-TAF:

METAR-TAF

Aéroports :

Aéroport international Roi-Abdelaziz

Djeddah, Arabie saoudite

latitude: 21-42N, longitude: 039-11E, altitude: 15 m

Observation

Le bulletin a été fait il y a 1 heure et 0 minutes, à 20:00 UTC
Vent 4 kt de nord-ouest
Température 30°C
Humidité 66%
Pression 1014 hPa
Visibilité 10 km ou plus
Quelques nuages à une hauteur de 4000 ft

METAR: OEJN 212000Z 31004KT 9999 FEW040 30/23 Q1014 NOSIG

Heure: 00:00 (21:00 UTC)

Prévision

Le bulletin a été fait il y a 4 heures et 0 minutes, à 17:00 UTC
Prévision valable du 21 à 18 UTC au 22 à 24 UTC
Vent 6 kt de nord/nord-est
Visibilité: 7000 m
Quelques nuages à une hauteur de 4000 ft
Nuages épars à une hauteur de 10000 ft
Evoluant progressivement
du 22 à 06 UTC au 22 à 08 UTC
Vent 14 kt de ouest/nord-ouest

TAF: OEJN 211700Z 2118/2224 02006KT 7000 FEW040 SCT100 BECMG 2206/2208 30014KT

Observations et prévisions météorologiques de plus de 4000 aéroports (messages METAR et TAF).

Les stations disponibles sont représentées par des disques jaunes et rouges sur la carte.

Passer la souris dessus pour voir le nom de la station.

Cliquer dessus pour voir les observations et prévisions météorologiques.

Pour changer de carte: cliquez sur les boutons verts avec une croix noire pour zoomer, sur le bouton vert avec un tiret pour effectuer un zoom arrière, ou sur les flèches vertes pour les cartes adjacentes.


METAR-TAF: